createdAt,value
2022-11-16T00:00:15.029Z,1.70
2022-11-16T00:01:11.992Z,1.70
2022-11-16T00:02:11.417Z,1.80
2022-11-16T00:03:11.567Z,1.90
2022-11-16T00:04:11.258Z,1.80
2022-11-16T00:05:11.264Z,2.10
2022-11-16T00:06:12.258Z,1.80
2022-11-16T00:07:12.148Z,1.90
2022-11-16T00:08:11.542Z,1.80
2022-11-16T00:09:11.214Z,1.90
2022-11-16T00:10:14.004Z,1.70
2022-11-16T00:11:11.182Z,1.80
2022-11-16T00:12:11.174Z,2.00
2022-11-16T00:13:11.153Z,1.80
2022-11-16T00:14:11.191Z,2.00
2022-11-16T00:15:14.002Z,2.50
2022-11-16T00:16:11.146Z,2.20
2022-11-16T00:17:12.015Z,1.90
2022-11-16T00:18:11.097Z,2.00
2022-11-16T00:19:11.105Z,1.70
2022-11-16T00:20:11.106Z,2.20
2022-11-16T00:21:11.548Z,2.10
2022-11-16T00:22:12.035Z,2.10
2022-11-16T00:23:11.056Z,2.00
2022-11-16T00:24:11.042Z,2.10
2022-11-16T00:25:11.018Z,1.90
2022-11-16T00:26:14.011Z,2.10
2022-11-16T00:27:11.026Z,2.10
2022-11-16T00:28:11.001Z,2.10
2022-11-16T00:29:11.505Z,2.20
2022-11-16T00:30:10.973Z,2.10
2022-11-16T00:31:10.964Z,2.10
2022-11-16T00:32:11.054Z,2.10
2022-11-16T00:33:10.932Z,2.30
2022-11-16T00:34:13.513Z,2.40
2022-11-16T00:35:10.915Z,2.50
2022-11-16T00:36:10.902Z,2.40
2022-11-16T00:37:10.909Z,2.20
2022-11-16T00:38:10.912Z,2.20
2022-11-16T00:39:10.866Z,2.30
2022-11-16T00:40:10.887Z,2.30
2022-11-16T00:41:10.855Z,2.70
2022-11-16T00:42:10.854Z,2.30
2022-11-16T00:43:10.826Z,2.30
2022-11-16T00:44:11.875Z,2.30
2022-11-16T00:45:10.825Z,2.50
2022-11-16T00:46:10.794Z,2.70
2022-11-16T00:47:10.780Z,2.90
2022-11-16T00:48:10.803Z,2.90
2022-11-16T00:49:10.788Z,2.40
2022-11-16T00:50:10.759Z,2.50
2022-11-16T00:51:10.752Z,2.70
2022-11-16T00:52:10.731Z,2.70
2022-11-16T00:53:10.725Z,3.00
2022-11-16T00:54:10.723Z,2.50
2022-11-16T00:55:10.699Z,2.70
2022-11-16T00:56:11.507Z,2.40
2022-11-16T00:57:10.700Z,2.60
2022-11-16T00:58:10.716Z,2.70
2022-11-16T00:59:10.662Z,2.70
2022-11-16T01:00:10.688Z,2.90
2022-11-16T01:01:10.683Z,2.80
2022-11-16T01:02:10.628Z,2.80
2022-11-16T01:03:10.611Z,2.80
2022-11-16T01:04:10.609Z,2.80
2022-11-16T01:05:10.621Z,2.70
2022-11-16T01:06:10.596Z,3.20
2022-11-16T01:07:10.635Z,3.10
2022-11-16T01:08:10.559Z,2.90
2022-11-16T01:09:10.553Z,2.70
2022-11-16T01:10:10.542Z,2.90
2022-11-16T01:11:10.540Z,3.10
2022-11-16T01:12:10.518Z,3.40
2022-11-16T01:13:10.505Z,2.80
2022-11-16T01:14:11.009Z,3.10
2022-11-16T01:15:10.514Z,3.10
2022-11-16T01:16:10.477Z,3.30
2022-11-16T01:17:10.483Z,3.10
2022-11-16T01:18:10.470Z,3.20
2022-11-16T01:19:10.443Z,3.30
2022-11-16T01:20:10.434Z,2.90
2022-11-16T01:21:10.411Z,3.10
2022-11-16T01:22:10.447Z,2.80
2022-11-16T01:23:10.394Z,3.10
2022-11-16T01:24:11.021Z,3.10
2022-11-16T01:25:10.372Z,3.10
2022-11-16T01:26:10.368Z,3.20
2022-11-16T01:27:10.348Z,3.20
2022-11-16T01:28:11.613Z,3.10
2022-11-16T01:29:10.540Z,3.20
2022-11-16T01:30:10.333Z,3.00
2022-11-16T01:31:10.304Z,3.40
2022-11-16T01:32:10.325Z,3.50
2022-11-16T01:33:13.014Z,3.30
2022-11-16T01:34:10.279Z,3.30
2022-11-16T01:35:10.262Z,3.80
2022-11-16T01:36:13.034Z,3.60
2022-11-16T01:37:10.237Z,3.60
2022-11-16T01:38:10.254Z,3.80
2022-11-16T01:39:11.510Z,3.30
2022-11-16T01:40:10.202Z,3.10
2022-11-16T01:41:11.028Z,3.60
2022-11-16T01:42:10.178Z,3.60
2022-11-16T01:43:10.203Z,3.60
2022-11-16T01:44:10.166Z,3.40
2022-11-16T01:45:10.171Z,3.70
2022-11-16T01:46:10.137Z,3.60
2022-11-16T01:47:10.144Z,3.70
2022-11-16T01:48:10.136Z,3.70
2022-11-16T01:49:10.142Z,3.70
2022-11-16T01:50:10.093Z,3.60
2022-11-16T01:51:10.091Z,3.40
2022-11-16T01:52:10.139Z,3.70
2022-11-16T01:53:11.011Z,3.60
2022-11-16T01:54:10.057Z,3.70
2022-11-16T01:55:10.069Z,4.10
2022-11-16T01:56:10.027Z,3.60
2022-11-16T01:57:11.075Z,3.70
2022-11-16T01:58:10.010Z,4.70
2022-11-16T01:59:10.002Z,3.80
2022-11-16T02:00:09.994Z,3.70
2022-11-16T02:01:10.063Z,3.90
2022-11-16T02:02:09.990Z,3.70
2022-11-16T02:03:09.958Z,4.10
2022-11-16T02:04:09.956Z,3.90
2022-11-16T02:05:09.931Z,4.10
2022-11-16T02:06:09.963Z,3.80
2022-11-16T02:07:09.972Z,4.30
2022-11-16T02:08:09.919Z,4.10
2022-11-16T02:09:12.514Z,4.10
2022-11-16T02:10:12.503Z,4.30
2022-11-16T02:11:09.866Z,4.30
2022-11-16T02:12:09.890Z,4.30
2022-11-16T02:13:09.875Z,4.20
2022-11-16T02:14:09.839Z,3.90
2022-11-16T02:15:09.824Z,4.00
2022-11-16T02:16:09.826Z,4.20
2022-11-16T02:17:09.804Z,4.00
2022-11-16T02:18:09.812Z,4.50
2022-11-16T02:19:09.795Z,4.30
2022-11-16T02:20:09.773Z,4.20
2022-11-16T02:21:09.759Z,4.70
2022-11-16T02:22:09.767Z,4.60
2022-11-16T02:23:09.741Z,4.10
2022-11-16T02:24:09.746Z,4.90
2022-11-16T02:25:09.719Z,4.50
2022-11-16T02:26:09.699Z,4.20
2022-11-16T02:27:09.722Z,4.70
2022-11-16T02:28:09.678Z,4.60
2022-11-16T02:29:09.696Z,4.40
2022-11-16T02:30:09.655Z,4.60
2022-11-16T02:31:09.656Z,4.20
2022-11-16T02:32:09.630Z,4.90
2022-11-16T02:33:09.655Z,4.50
2022-11-16T02:34:09.613Z,4.70
2022-11-16T02:35:09.606Z,4.90
2022-11-16T02:36:09.592Z,4.30
2022-11-16T02:37:10.632Z,4.60
2022-11-16T02:38:16.507Z,4.40
2022-11-16T02:39:10.050Z,4.80
2022-11-16T02:40:12.527Z,4.80
2022-11-16T02:41:12.523Z,4.60
2022-11-16T02:42:09.535Z,4.70
2022-11-16T02:43:09.521Z,4.80
2022-11-16T02:44:09.507Z,4.60
2022-11-16T02:45:09.519Z,4.80
2022-11-16T02:46:09.475Z,4.80
2022-11-16T02:47:09.474Z,4.80
2022-11-16T02:48:09.477Z,5.10
2022-11-16T02:49:09.455Z,4.70
2022-11-16T02:50:09.547Z,5.10
2022-11-16T02:51:09.429Z,4.70
2022-11-16T02:52:09.420Z,4.40
2022-11-16T02:53:09.405Z,4.50
2022-11-16T02:54:09.404Z,4.70
2022-11-16T02:55:09.407Z,4.80
2022-11-16T02:56:09.418Z,4.60
2022-11-16T02:57:09.361Z,4.90
2022-11-16T02:58:10.021Z,5.00
2022-11-16T02:59:09.336Z,4.70
2022-11-16T03:00:09.333Z,4.90
2022-11-16T03:01:09.419Z,5.20
2022-11-16T03:02:09.332Z,4.80
2022-11-16T03:03:12.019Z,5.00
2022-11-16T03:04:09.286Z,4.90
2022-11-16T03:05:09.275Z,5.40
2022-11-16T03:06:09.281Z,5.70
2022-11-16T03:07:09.320Z,5.20
2022-11-16T03:08:10.012Z,5.20
2022-11-16T03:09:09.258Z,5.50
2022-11-16T03:10:09.221Z,5.10
2022-11-16T03:11:09.211Z,5.20
2022-11-16T03:12:09.217Z,4.90
2022-11-16T03:13:09.214Z,5.40
2022-11-16T03:14:09.197Z,5.30
2022-11-16T03:15:09.171Z,5.20
2022-11-16T03:16:09.146Z,5.20
2022-11-16T03:17:09.149Z,5.30
2022-11-16T03:18:10.014Z,5.10
2022-11-16T03:19:09.145Z,5.60
2022-11-16T03:20:09.119Z,5.70
2022-11-16T03:21:09.148Z,5.70
2022-11-16T03:22:09.095Z,5.60
2022-11-16T03:23:09.074Z,5.70
2022-11-16T03:24:10.021Z,6.40
2022-11-16T03:25:11.039Z,5.90
2022-11-16T03:26:09.043Z,5.90
2022-11-16T03:27:09.035Z,5.70
2022-11-16T03:28:09.051Z,6.10
2022-11-16T03:29:09.046Z,6.00
2022-11-16T03:30:08.998Z,6.20
2022-11-16T03:31:09.513Z,5.90
2022-11-16T03:32:08.999Z,6.00
2022-11-16T03:33:08.963Z,6.10
2022-11-16T03:34:08.988Z,6.10
2022-11-16T03:35:08.942Z,6.50
2022-11-16T03:36:08.940Z,5.80
2022-11-16T03:37:08.943Z,6.00
2022-11-16T03:38:08.926Z,6.70
2022-11-16T03:39:08.900Z,6.00
2022-11-16T03:40:08.892Z,6.50
2022-11-16T03:41:08.897Z,6.40
2022-11-16T03:42:08.871Z,6.30
2022-11-16T03:43:08.863Z,6.00
2022-11-16T03:44:08.868Z,5.90
2022-11-16T03:45:08.835Z,6.20
2022-11-16T03:46:08.852Z,6.70
2022-11-16T03:47:08.826Z,6.20
2022-11-16T03:48:09.528Z,6.20
2022-11-16T03:49:08.795Z,6.50
2022-11-16T03:50:11.521Z,6.30
2022-11-16T03:51:08.773Z,6.40
2022-11-16T03:52:08.783Z,6.40
2022-11-16T03:53:08.752Z,6.60
2022-11-16T03:54:08.772Z,6.60
2022-11-16T03:55:08.763Z,6.20
2022-11-16T03:56:08.713Z,6.10
2022-11-16T03:57:08.726Z,5.80
2022-11-16T03:58:08.693Z,5.70
2022-11-16T03:59:09.728Z,6.40
2022-11-16T04:00:09.537Z,7.10
2022-11-16T04:01:08.735Z,6.40
2022-11-16T04:02:08.654Z,6.60
2022-11-16T04:03:10.743Z,6.80
2022-11-16T04:04:08.649Z,6.70
2022-11-16T04:05:09.521Z,6.60
2022-11-16T04:06:11.511Z,6.50
2022-11-16T04:07:08.643Z,7.00
2022-11-16T04:08:09.514Z,6.60
2022-11-16T04:09:08.596Z,7.00
2022-11-16T04:10:10.552Z,6.70
2022-11-16T04:11:08.555Z,7.00
2022-11-16T04:12:08.545Z,6.60
2022-11-16T04:13:08.534Z,6.40
2022-11-16T04:14:09.401Z,6.50
2022-11-16T04:15:08.527Z,6.10
2022-11-16T04:16:08.514Z,6.10
2022-11-16T04:17:08.495Z,6.10
2022-11-16T04:18:08.477Z,6.40
2022-11-16T04:19:08.560Z,6.50
2022-11-16T04:20:08.456Z,6.30
2022-11-16T04:21:08.444Z,6.00
2022-11-16T04:22:08.437Z,6.00
2022-11-16T04:23:08.413Z,6.40
2022-11-16T04:24:08.413Z,6.20
2022-11-16T04:25:08.418Z,6.10
2022-11-16T04:26:08.419Z,6.80
2022-11-16T04:27:08.373Z,7.20
2022-11-16T04:28:08.367Z,7.00
2022-11-16T04:29:08.369Z,6.70
2022-11-16T04:30:08.353Z,6.40
2022-11-16T04:31:08.330Z,6.40
2022-11-16T04:32:08.383Z,7.00
2022-11-16T04:33:08.310Z,6.50
2022-11-16T04:34:08.307Z,6.40
2022-11-16T04:35:08.299Z,6.50
2022-11-16T04:36:08.308Z,6.80
2022-11-16T04:37:08.291Z,5.70
2022-11-16T04:38:08.264Z,6.10
2022-11-16T04:39:08.245Z,6.20
2022-11-16T04:40:08.237Z,6.10
2022-11-16T04:41:08.225Z,6.00
2022-11-16T04:42:08.228Z,6.00
2022-11-16T04:43:09.012Z,5.90
2022-11-16T04:44:08.202Z,5.80
2022-11-16T04:45:08.167Z,5.90
2022-11-16T04:46:08.166Z,5.80
2022-11-16T04:47:08.209Z,5.30
2022-11-16T04:48:08.176Z,5.90
2022-11-16T04:49:08.131Z,5.20
2022-11-16T04:50:08.127Z,5.00
2022-11-16T04:51:08.108Z,5.90
2022-11-16T04:52:08.108Z,4.90
2022-11-16T04:53:08.109Z,5.00
2022-11-16T04:54:08.084Z,4.90
2022-11-16T04:55:08.069Z,5.00
2022-11-16T04:56:08.063Z,4.70
2022-11-16T04:57:08.045Z,5.00
2022-11-16T04:58:08.087Z,4.70
2022-11-16T04:59:08.050Z,5.10
2022-11-16T05:00:08.035Z,4.60
2022-11-16T05:01:08.048Z,4.50
2022-11-16T05:02:07.995Z,4.80
2022-11-16T05:03:07.979Z,5.30
2022-11-16T05:04:08.015Z,4.60
2022-11-16T05:05:07.980Z,4.70
2022-11-16T05:06:07.945Z,4.40
2022-11-16T05:07:07.956Z,5.00
2022-11-16T05:08:09.242Z,4.80
2022-11-16T05:09:07.944Z,4.50
2022-11-16T05:10:07.917Z,4.70
2022-11-16T05:11:07.902Z,4.60
2022-11-16T05:12:07.884Z,4.60
2022-11-16T05:13:07.880Z,4.50
2022-11-16T05:14:07.864Z,4.80
2022-11-16T05:15:08.057Z,4.50
2022-11-16T05:16:07.837Z,4.80
2022-11-16T05:17:07.838Z,5.20
2022-11-16T05:18:07.817Z,4.50
2022-11-16T05:19:07.808Z,4.90
2022-11-16T05:20:07.840Z,4.60
2022-11-16T05:21:07.795Z,5.10
2022-11-16T05:22:07.766Z,4.80
2022-11-16T05:23:08.772Z,4.80
2022-11-16T05:24:07.770Z,4.90
2022-11-16T05:25:07.768Z,5.10
2022-11-16T05:26:07.728Z,4.50
2022-11-16T05:27:07.719Z,4.30
2022-11-16T05:28:07.722Z,4.70
2022-11-16T05:29:07.702Z,4.70
2022-11-16T05:30:07.697Z,4.50
2022-11-16T05:31:07.711Z,4.70
2022-11-16T05:32:07.673Z,4.80
2022-11-16T05:33:07.661Z,4.60
2022-11-16T05:34:07.645Z,4.30
2022-11-16T05:35:07.634Z,4.50
2022-11-16T05:36:07.663Z,4.30
2022-11-16T05:37:07.609Z,4.90
2022-11-16T05:38:07.604Z,4.20
2022-11-16T05:39:07.599Z,4.70
2022-11-16T05:40:07.585Z,4.50
2022-11-16T05:41:07.566Z,4.30
2022-11-16T05:42:07.578Z,4.40
2022-11-16T05:43:07.568Z,4.50
2022-11-16T05:44:07.533Z,4.30
2022-11-16T05:45:07.519Z,5.30
2022-11-16T05:46:07.527Z,4.50
2022-11-16T05:47:07.500Z,4.10
2022-11-16T05:48:07.528Z,4.10
2022-11-16T05:49:07.481Z,4.30
2022-11-16T05:50:07.480Z,4.60
2022-11-16T05:51:07.455Z,4.60
2022-11-16T05:52:07.467Z,4.70
2022-11-16T05:53:07.454Z,4.50
2022-11-16T05:54:08.038Z,4.20
2022-11-16T05:55:07.441Z,4.30
2022-11-16T05:56:10.098Z,4.20
2022-11-16T05:57:07.403Z,4.10
2022-11-16T05:58:07.385Z,4.10
2022-11-16T05:59:10.073Z,4.20
2022-11-16T06:00:08.381Z,3.90
2022-11-16T06:01:14.028Z,4.10
2022-11-16T06:02:07.336Z,4.10
2022-11-16T06:03:07.388Z,4.00
2022-11-16T06:04:07.341Z,3.80
2022-11-16T06:05:07.337Z,3.60
2022-11-16T06:06:07.290Z,4.00
2022-11-16T06:07:07.333Z,3.90
2022-11-16T06:08:07.310Z,4.10
2022-11-16T06:09:07.265Z,3.80
2022-11-16T06:10:07.276Z,4.00
2022-11-16T06:11:07.277Z,3.50
2022-11-16T06:12:10.024Z,3.90
2022-11-16T06:13:08.030Z,3.70
2022-11-16T06:14:07.215Z,3.80
2022-11-16T06:15:07.220Z,3.90
2022-11-16T06:16:07.458Z,3.60
2022-11-16T06:17:10.032Z,4.80
2022-11-16T06:18:07.170Z,3.60
2022-11-16T06:19:07.175Z,3.50
2022-11-16T06:20:07.170Z,3.20
2022-11-16T06:21:08.033Z,3.20
2022-11-16T06:22:07.145Z,3.30
2022-11-16T06:23:07.120Z,2.70
2022-11-16T06:24:07.098Z,2.90
2022-11-16T06:25:07.086Z,3.30
2022-11-16T06:26:07.075Z,3.00
2022-11-16T06:27:08.033Z,2.90
2022-11-16T06:28:08.302Z,3.00
2022-11-16T06:29:08.087Z,2.80
2022-11-16T06:30:09.536Z,2.80
2022-11-16T06:31:09.532Z,2.60
2022-11-16T06:32:07.154Z,3.00
2022-11-16T06:33:07.007Z,2.60
2022-11-16T06:34:07.001Z,3.00
2022-11-16T06:35:06.975Z,2.90
2022-11-16T06:36:07.980Z,2.80
2022-11-16T06:37:07.066Z,2.80
2022-11-16T06:38:09.544Z,2.50
2022-11-16T06:39:06.956Z,2.60
2022-11-16T06:40:06.928Z,2.70
2022-11-16T06:41:06.905Z,2.60
2022-11-16T06:42:07.534Z,2.50
2022-11-16T06:43:06.910Z,2.50
2022-11-16T06:44:07.548Z,2.50
2022-11-16T06:45:06.894Z,2.30
2022-11-16T06:46:06.860Z,2.40
2022-11-16T06:47:06.870Z,2.30
2022-11-16T06:48:09.760Z,2.30
2022-11-16T06:49:06.823Z,2.50
2022-11-16T06:50:08.566Z,2.60
2022-11-16T06:51:06.796Z,2.40
2022-11-16T06:52:13.542Z,2.30
2022-11-16T06:53:06.800Z,2.20
2022-11-16T06:54:06.767Z,2.10
2022-11-16T06:55:06.755Z,2.40
2022-11-16T06:56:06.750Z,2.10
2022-11-16T06:57:06.764Z,2.10
2022-11-16T06:58:07.541Z,2.30
2022-11-16T06:59:09.541Z,2.40
2022-11-16T07:00:06.720Z,2.00
2022-11-16T07:01:06.708Z,2.20
2022-11-16T07:02:07.601Z,2.20
2022-11-16T07:03:06.678Z,2.00
2022-11-16T07:04:06.687Z,2.00
2022-11-16T07:05:06.673Z,2.30
2022-11-16T07:06:07.542Z,2.20
2022-11-16T07:07:07.566Z,2.20
2022-11-16T07:08:06.613Z,1.80
2022-11-16T07:09:06.612Z,1.90
2022-11-16T07:10:06.590Z,2.10
2022-11-16T07:11:06.612Z,1.80
2022-11-16T07:12:06.603Z,2.10
2022-11-16T07:13:06.558Z,2.00
2022-11-16T07:14:09.533Z,2.10
2022-11-16T07:15:06.588Z,1.70
2022-11-16T07:16:06.534Z,1.60
2022-11-16T07:17:09.482Z,2.00
2022-11-16T07:18:06.530Z,2.10
2022-11-16T07:19:07.040Z,1.80
2022-11-16T07:20:06.505Z,2.00
2022-11-16T07:21:06.479Z,2.20
2022-11-16T07:22:06.494Z,2.10
2022-11-16T07:23:11.360Z,1.90
2022-11-16T07:24:10.037Z,1.80
2022-11-16T07:25:06.434Z,2.00
2022-11-16T07:26:06.424Z,1.80
2022-11-16T07:27:06.436Z,2.00
2022-11-16T07:28:06.570Z,1.80
2022-11-16T07:29:07.045Z,1.80
2022-11-16T07:30:06.562Z,1.60
2022-11-16T07:31:06.372Z,1.80
2022-11-16T07:32:07.041Z,2.00
2022-11-16T07:33:07.372Z,1.80
2022-11-16T07:34:06.357Z,1.70
2022-11-16T07:35:09.319Z,2.20
2022-11-16T07:36:06.332Z,2.00
2022-11-16T07:37:07.047Z,1.70
2022-11-16T07:38:16.845Z,1.60
2022-11-16T07:39:14.045Z,1.80
2022-11-16T07:40:07.027Z,1.60
2022-11-16T07:41:21.037Z,1.80
2022-11-16T07:42:06.575Z,1.60
2022-11-16T07:43:07.034Z,1.90
2022-11-16T07:44:10.868Z,1.60
2022-11-16T07:45:10.042Z,1.70
2022-11-16T07:46:44.509Z,1.80
2022-11-16T07:47:07.186Z,1.60
2022-11-16T07:48:06.183Z,1.50
2022-11-16T07:49:11.156Z,1.90
2022-11-16T07:50:09.039Z,1.70
2022-11-16T07:51:06.275Z,1.60
2022-11-16T07:52:06.193Z,1.80
2022-11-16T07:53:06.132Z,1.80
2022-11-16T07:54:06.116Z,1.60
2022-11-16T07:55:09.038Z,1.60
2022-11-16T07:56:06.095Z,1.60
2022-11-16T07:57:06.090Z,1.70
2022-11-16T07:58:06.101Z,1.70
2022-11-16T07:59:06.065Z,1.70
2022-11-16T08:00:06.052Z,1.80
2022-11-16T08:01:06.100Z,1.70
2022-11-16T08:02:06.064Z,2.10
2022-11-16T08:03:06.027Z,2.30
2022-11-16T08:04:06.024Z,2.30
2022-11-16T08:05:05.997Z,1.80
2022-11-16T08:06:06.549Z,1.90
2022-11-16T08:07:06.736Z,2.00
2022-11-16T08:08:06.548Z,1.90
2022-11-16T08:09:05.948Z,2.00
2022-11-16T08:10:06.045Z,2.10
2022-11-16T08:11:05.928Z,2.30
2022-11-16T08:12:06.577Z,2.20
2022-11-16T08:13:12.537Z,2.10
2022-11-16T08:14:05.910Z,2.60
2022-11-16T08:15:05.905Z,2.50
2022-11-16T08:16:05.880Z,2.70
2022-11-16T08:17:05.864Z,2.50
2022-11-16T08:18:05.865Z,2.00
2022-11-16T08:19:06.535Z,2.30
2022-11-16T08:20:06.094Z,2.00
2022-11-16T08:21:05.823Z,2.20
2022-11-16T08:22:05.807Z,2.20
2022-11-16T08:23:06.745Z,2.40
2022-11-16T08:24:07.846Z,3.10
2022-11-16T08:25:06.535Z,2.40
2022-11-16T08:26:06.070Z,2.60
2022-11-16T08:27:05.777Z,2.60
2022-11-16T08:28:06.538Z,2.80
2022-11-16T08:29:05.736Z,3.30
2022-11-16T08:30:05.724Z,2.80
2022-11-16T08:31:05.725Z,3.10
2022-11-16T08:32:05.720Z,3.20
2022-11-16T08:33:08.545Z,2.90
2022-11-16T08:34:05.677Z,2.90
2022-11-16T08:35:08.540Z,2.90
2022-11-16T08:36:10.961Z,3.00
2022-11-16T08:37:06.678Z,3.20
2022-11-16T08:38:05.625Z,3.20
2022-11-16T08:39:05.745Z,3.30
2022-11-16T08:40:05.629Z,3.00
2022-11-16T08:41:05.602Z,3.10
2022-11-16T08:42:05.587Z,3.10
2022-11-16T08:43:07.577Z,3.30
2022-11-16T08:44:05.595Z,3.10
2022-11-16T08:45:06.545Z,3.30
2022-11-16T08:46:05.583Z,3.00
2022-11-16T08:47:05.539Z,3.00
2022-11-16T08:48:05.548Z,3.00
2022-11-16T08:49:06.048Z,3.10
2022-11-16T08:50:05.501Z,2.90
2022-11-16T08:51:21.350Z,3.20
2022-11-16T08:52:06.500Z,3.00
2022-11-16T08:53:08.057Z,3.10
2022-11-16T08:54:05.456Z,3.30
2022-11-16T08:55:05.492Z,3.40
2022-11-16T08:56:05.459Z,3.20
2022-11-16T08:57:20.034Z,3.60
2022-11-16T08:58:08.054Z,3.30
2022-11-16T08:59:06.052Z,3.20
2022-11-16T09:00:06.036Z,3.60
2022-11-16T09:01:05.582Z,3.40
2022-11-16T09:02:05.426Z,3.40
2022-11-16T09:03:08.036Z,3.10
2022-11-16T09:04:05.351Z,3.20
2022-11-16T09:05:05.367Z,3.10
2022-11-16T09:06:05.319Z,3.10
2022-11-16T09:07:06.086Z,3.30
2022-11-16T09:08:05.308Z,3.10
2022-11-16T09:09:06.044Z,3.30
2022-11-16T09:10:05.316Z,3.00
2022-11-16T09:11:05.386Z,3.30
2022-11-16T09:12:05.291Z,2.70
2022-11-16T09:13:06.044Z,2.90
2022-11-16T09:14:06.046Z,3.00
2022-11-16T09:15:26.245Z,3.00
2022-11-16T09:16:05.251Z,2.80
2022-11-16T09:17:08.042Z,2.60
2022-11-16T09:18:05.199Z,2.50
2022-11-16T09:19:05.179Z,3.10
2022-11-16T09:20:07.079Z,2.50
2022-11-16T09:21:06.039Z,3.00
2022-11-16T09:22:05.155Z,1.90
2022-11-16T09:23:05.156Z,2.10
2022-11-16T09:24:05.133Z,2.30
2022-11-16T09:25:08.036Z,2.50
2022-11-16T09:26:05.101Z,2.70
2022-11-16T09:27:06.155Z,1.90
2022-11-16T09:28:05.123Z,2.20
2022-11-16T09:29:08.045Z,1.90
2022-11-16T09:30:05.148Z,1.80
2022-11-16T09:31:05.049Z,2.30
2022-11-16T09:32:05.046Z,1.90
2022-11-16T09:33:05.027Z,2.10
2022-11-16T09:34:05.048Z,2.00
2022-11-16T09:35:05.006Z,2.30
2022-11-16T09:36:05.006Z,1.50
2022-11-16T09:37:04.993Z,1.70
2022-11-16T09:38:04.979Z,1.80
2022-11-16T09:40:05.966Z,1.70
2022-11-16T09:41:05.561Z,1.40
2022-11-16T09:42:05.541Z,1.10
2022-11-16T09:43:04.936Z,1.60
2022-11-16T09:44:07.597Z,1.30
2022-11-16T09:45:05.145Z,1.50
2022-11-16T09:46:04.888Z,1.30
2022-11-16T09:47:04.886Z,1.50
2022-11-16T09:48:05.563Z,1.60
2022-11-16T09:49:06.094Z,2.10
2022-11-16T09:50:06.079Z,1.90
2022-11-16T09:51:04.834Z,1.60
2022-11-16T09:52:11.555Z,2.00
2022-11-16T09:53:04.820Z,1.50
2022-11-16T09:54:04.811Z,1.60
2022-11-16T09:55:05.099Z,1.20
2022-11-16T09:56:05.543Z,1.80
2022-11-16T09:57:10.985Z,1.30
2022-11-16T09:58:05.859Z,1.50
2022-11-16T09:59:05.669Z,1.70
2022-11-16T10:00:04.756Z,1.50
2022-11-16T10:01:04.874Z,1.50
2022-11-16T10:02:04.717Z,1.70
2022-11-16T10:03:04.702Z,1.60
2022-11-16T10:04:04.686Z,1.60
2022-11-16T10:05:04.698Z,1.50
2022-11-16T10:06:04.684Z,1.70
2022-11-16T10:07:04.745Z,1.60
2022-11-16T10:08:05.680Z,1.10
2022-11-16T10:09:05.567Z,1.90
2022-11-16T10:10:04.626Z,1.20
2022-11-16T10:11:04.610Z,1.90
2022-11-16T10:12:04.642Z,1.60
2022-11-16T10:13:07.556Z,1.60
2022-11-16T10:14:04.685Z,1.40
2022-11-16T10:15:04.701Z,1.30
2022-11-16T10:16:04.557Z,1.30
2022-11-16T10:17:04.581Z,1.60
2022-11-16T10:18:04.543Z,1.50
2022-11-16T10:19:04.514Z,1.90
2022-11-16T10:20:04.575Z,1.50
2022-11-16T10:21:05.041Z,1.60
2022-11-16T10:22:04.495Z,1.70
2022-11-16T10:23:04.502Z,1.60
2022-11-16T10:24:05.053Z,1.30
2022-11-16T10:25:25.468Z,1.50
2022-11-16T10:26:06.504Z,1.50
2022-11-16T10:27:07.071Z,2.00
2022-11-16T10:28:04.451Z,1.30
2022-11-16T10:29:04.444Z,1.40
2022-11-16T10:30:04.423Z,1.50
2022-11-16T10:31:04.406Z,1.30
2022-11-16T10:32:04.393Z,1.70
2022-11-16T10:33:09.687Z,1.40
2022-11-16T10:34:05.383Z,1.20
2022-11-16T10:35:04.364Z,1.50
2022-11-16T10:36:05.043Z,1.20
2022-11-16T10:37:04.328Z,1.90
2022-11-16T10:38:04.324Z,1.40
2022-11-16T10:39:07.055Z,1.80
2022-11-16T10:40:04.605Z,1.20
2022-11-16T10:41:04.286Z,1.30
2022-11-16T10:42:07.588Z,1.80
2022-11-16T10:43:04.258Z,1.60
2022-11-16T10:44:04.281Z,1.50
2022-11-16T10:45:04.271Z,1.70
2022-11-16T10:46:04.236Z,1.50
2022-11-16T10:47:04.335Z,1.60
2022-11-16T10:48:19.045Z,1.30
2022-11-16T10:49:04.198Z,1.60
2022-11-16T10:50:05.087Z,1.60
2022-11-16T10:51:05.067Z,1.50
2022-11-16T10:52:04.161Z,1.30
2022-11-16T10:53:04.153Z,1.20
2022-11-16T10:54:11.060Z,1.50
2022-11-16T10:55:07.050Z,1.90
2022-11-16T10:56:04.146Z,1.30
2022-11-16T10:57:04.100Z,1.70
2022-11-16T10:58:04.102Z,1.50
2022-11-16T10:59:04.097Z,1.50
2022-11-16T11:00:09.862Z,1.70
2022-11-16T11:01:05.132Z,1.40
2022-11-16T11:02:04.065Z,1.50
2022-11-16T11:03:06.667Z,1.40
2022-11-16T11:04:06.557Z,1.30
2022-11-16T11:05:04.020Z,1.70
2022-11-16T11:06:04.020Z,1.50
2022-11-16T11:07:04.140Z,1.30
2022-11-16T11:08:03.988Z,1.60
2022-11-16T11:09:03.996Z,1.60
2022-11-16T11:10:04.563Z,1.70
2022-11-16T11:11:04.088Z,1.50
2022-11-16T11:12:03.976Z,1.50
2022-11-16T11:13:06.559Z,1.70
2022-11-16T11:14:06.557Z,1.50
2022-11-16T11:15:03.933Z,1.20
2022-11-16T11:16:03.903Z,1.50
2022-11-16T11:17:03.922Z,1.50
2022-11-16T11:18:03.913Z,1.60
2022-11-16T11:19:04.687Z,1.60
2022-11-16T11:20:03.857Z,1.80
2022-11-16T11:21:03.873Z,1.30
2022-11-16T11:22:03.842Z,1.20
2022-11-16T11:23:04.092Z,1.20
2022-11-16T11:24:37.445Z,1.40
2022-11-16T11:25:04.793Z,1.40
2022-11-16T11:26:03.797Z,1.80
2022-11-16T11:27:06.569Z,1.80
2022-11-16T11:28:04.116Z,1.30
2022-11-16T11:29:03.759Z,1.70
2022-11-16T11:30:03.763Z,1.20
2022-11-16T11:31:03.739Z,1.30
2022-11-16T11:32:03.733Z,1.00
2022-11-16T11:33:03.722Z,1.00
2022-11-16T11:34:05.586Z,1.50
2022-11-16T11:35:03.811Z,1.30
2022-11-16T11:36:03.720Z,1.00
2022-11-16T11:37:03.665Z,1.10
2022-11-16T11:38:07.943Z,1.10
2022-11-16T11:39:03.765Z,1.30
2022-11-16T11:40:04.093Z,0.80
2022-11-16T11:41:04.554Z,1.20
2022-11-16T11:42:03.627Z,0.90
2022-11-16T11:43:06.557Z,0.90
2022-11-16T11:44:03.609Z,0.90
2022-11-16T11:45:03.604Z,0.60
2022-11-16T11:46:03.583Z,0.90
2022-11-16T11:47:55.745Z,0.80
2022-11-16T11:48:04.567Z,0.90
2022-11-16T11:49:03.551Z,1.00
2022-11-16T11:50:03.526Z,1.10
2022-11-16T11:51:03.575Z,1.00
2022-11-16T11:52:03.553Z,1.40
2022-11-16T11:53:03.493Z,0.80
2022-11-16T11:54:03.485Z,0.90
2022-11-16T11:55:03.478Z,0.90
2022-11-16T11:56:04.061Z,0.90
2022-11-16T11:57:03.485Z,0.90
2022-11-16T11:58:03.441Z,0.90
2022-11-16T11:59:03.428Z,0.70
2022-11-16T12:00:03.428Z,0.90
2022-11-16T12:01:03.437Z,0.90
2022-11-16T12:02:04.442Z,1.00
2022-11-16T12:03:03.674Z,1.00
2022-11-16T12:04:03.386Z,0.90
2022-11-16T12:05:03.364Z,1.20
2022-11-16T12:06:04.061Z,0.60
2022-11-16T12:07:03.603Z,0.80
2022-11-16T12:08:04.071Z,0.90
2022-11-16T12:09:04.061Z,0.90
2022-11-16T12:10:03.302Z,1.10
2022-11-16T12:11:03.311Z,1.10
2022-11-16T12:12:03.286Z,0.90
2022-11-16T12:13:03.294Z,1.00
2022-11-16T12:14:03.598Z,1.10
2022-11-16T12:15:03.267Z,0.70
2022-11-16T12:16:03.241Z,0.60
2022-11-16T12:17:03.224Z,1.00
2022-11-16T12:18:03.237Z,0.80
2022-11-16T12:19:03.199Z,0.70
2022-11-16T12:20:03.197Z,0.90
2022-11-16T12:21:03.178Z,0.70
2022-11-16T12:22:03.165Z,0.90
2022-11-16T12:23:04.395Z,0.70
2022-11-16T12:24:03.174Z,0.80
2022-11-16T12:25:04.064Z,0.70
2022-11-16T12:26:03.127Z,0.80
2022-11-16T12:27:03.107Z,0.70
2022-11-16T12:28:03.101Z,1.30
2022-11-16T12:29:03.142Z,0.90
2022-11-16T12:30:03.074Z,0.90
2022-11-16T12:31:03.090Z,0.60
2022-11-16T12:32:03.094Z,0.60
2022-11-16T12:33:03.055Z,0.50
2022-11-16T12:34:03.049Z,0.80
2022-11-16T12:35:03.029Z,0.70
2022-11-16T12:36:03.017Z,0.70
2022-11-16T12:37:03.001Z,0.70
2022-11-16T12:38:02.991Z,0.90
2022-11-16T12:39:03.002Z,0.60
2022-11-16T12:40:02.987Z,0.60
2022-11-16T12:41:02.955Z,0.60
2022-11-16T12:42:02.944Z,0.70
2022-11-16T12:43:02.967Z,0.60
2022-11-16T12:44:02.938Z,0.60
2022-11-16T12:45:02.914Z,1.20
2022-11-16T12:46:02.906Z,0.90
2022-11-16T12:47:02.887Z,0.80
2022-11-16T12:48:03.090Z,0.90
2022-11-16T12:49:02.878Z,0.90
2022-11-16T12:50:02.892Z,0.60
2022-11-16T12:51:02.845Z,0.60
2022-11-16T12:52:03.577Z,0.80
2022-11-16T12:53:03.855Z,0.70
2022-11-16T12:54:03.568Z,0.80
2022-11-16T12:55:30.782Z,0.90
2022-11-16T12:56:03.815Z,1.70
2022-11-16T12:57:02.789Z,0.90
2022-11-16T12:58:03.564Z,0.70
2022-11-16T12:59:02.768Z,0.60
2022-11-16T13:00:02.753Z,0.70
2022-11-16T13:01:02.929Z,0.60
2022-11-16T13:02:02.734Z,0.80
2022-11-16T13:03:02.721Z,0.80
2022-11-16T13:04:02.731Z,0.50
2022-11-16T13:05:02.700Z,0.50
2022-11-16T13:06:02.701Z,0.70
2022-11-16T13:07:09.303Z,1.20
2022-11-16T13:08:03.657Z,0.80
2022-11-16T13:09:03.567Z,0.70
2022-11-16T13:10:03.567Z,0.80
2022-11-16T13:11:03.720Z,0.90
2022-11-16T13:12:02.647Z,0.70
2022-11-16T13:13:34.815Z,0.90
2022-11-16T13:14:03.611Z,0.80
2022-11-16T13:15:02.583Z,0.70
2022-11-16T13:16:02.565Z,0.80
2022-11-16T13:17:03.591Z,1.00
2022-11-16T13:18:02.572Z,0.80
2022-11-16T13:19:05.096Z,0.80